createdAt,value
2022-09-05T00:01:41.365Z,14.93
2022-09-05T00:04:25.321Z,14.90
2022-09-05T00:07:03.176Z,14.88
2022-09-05T00:09:45.218Z,14.86
2022-09-05T00:12:13.783Z,14.84
2022-09-05T00:15:17.392Z,14.81
2022-09-05T00:20:21.979Z,14.76
2022-09-05T00:24:20.906Z,14.74
2022-09-05T00:24:36.442Z,14.70
2022-09-05T00:27:19.801Z,14.67
2022-09-05T00:31:07.269Z,14.65
2022-09-05T00:33:17.211Z,14.60
2022-09-05T00:36:21.225Z,14.58
2022-09-05T00:39:02.973Z,14.55
2022-09-05T00:41:34.176Z,14.53
2022-09-05T00:44:03.214Z,14.53
2022-09-05T00:46:34.838Z,14.50
2022-09-05T00:49:13.366Z,14.49
2022-09-05T00:52:00.866Z,14.47
2022-09-05T00:54:46.209Z,14.43
2022-09-05T00:57:35.887Z,14.40
2022-09-05T01:00:17.946Z,14.38
2022-09-05T01:03:10.253Z,14.34
2022-09-05T01:06:04.848Z,14.32
2022-09-05T01:09:07.942Z,14.29
2022-09-05T01:11:46.912Z,14.27
2022-09-05T01:14:39.981Z,14.26
2022-09-05T01:17:44.134Z,14.22
2022-09-05T01:20:43.809Z,14.19
2022-09-05T01:23:18.379Z,14.14
2022-09-05T01:26:20.428Z,14.12
2022-09-05T01:29:18.418Z,14.09
2022-09-05T01:32:10.404Z,14.03
2022-09-05T01:35:03.972Z,14.03
2022-09-05T01:37:57.347Z,14.01
2022-09-05T01:40:44.301Z,13.98
2022-09-05T01:43:39.912Z,13.96
2022-09-05T01:46:17.847Z,13.93
2022-09-05T01:49:37.293Z,13.90
2022-09-05T01:52:57.135Z,13.85
2022-09-05T01:56:04.353Z,13.83
2022-09-05T01:58:46.741Z,13.81
2022-09-05T02:01:44.894Z,13.81
2022-09-05T02:04:24.877Z,13.80
2022-09-05T02:07:30.204Z,13.76
2022-09-05T02:10:07.232Z,13.72
2022-09-05T02:12:58.426Z,13.72
2022-09-05T02:15:52.290Z,13.70
2022-09-05T02:18:48.450Z,13.68
2022-09-05T02:21:33.503Z,13.66
2022-09-05T02:24:29.490Z,13.65
2022-09-05T02:28:04.004Z,13.63
2022-09-05T02:30:33.992Z,13.57
2022-09-05T02:33:03.593Z,13.56
2022-09-05T02:35:53.326Z,13.55
2022-09-05T02:41:40.507Z,13.53
2022-09-05T02:45:11.149Z,13.48
2022-09-05T02:45:20.006Z,13.46
2022-09-05T02:47:52.097Z,13.42
2022-09-05T02:57:23.937Z,13.38
2022-09-05T02:57:41.945Z,13.35
2022-09-05T02:57:42.130Z,13.31
2022-09-05T02:59:53.777Z,13.29
2022-09-05T03:02:27.267Z,13.27
2022-09-05T03:05:04.754Z,13.26
2022-09-05T03:08:02.436Z,13.25
2022-09-05T03:10:56.774Z,13.23
2022-09-05T03:13:48.979Z,13.22
2022-09-05T03:16:47.167Z,13.18
2022-09-05T03:19:33.116Z,13.14
2022-09-05T03:22:23.114Z,13.09
2022-09-05T03:25:24.173Z,13.07
2022-09-05T03:27:53.465Z,13.06
2022-09-05T03:30:26.148Z,13.04
2022-09-05T03:33:08.285Z,13.07
2022-09-05T03:35:59.470Z,13.07
2022-09-05T03:38:31.595Z,13.05
2022-09-05T03:41:09.661Z,13.00
2022-09-05T03:43:54.470Z,12.98
2022-09-05T03:46:40.642Z,12.94
2022-09-05T03:50:40.175Z,12.92
2022-09-05T03:57:10.993Z,12.90
2022-09-05T03:57:24.630Z,12.83
2022-09-05T03:58:11.928Z,12.79
2022-09-05T04:01:22.671Z,12.78
2022-09-05T04:08:10.062Z,12.76
2022-09-05T04:08:16.626Z,12.71
2022-09-05T04:09:59.291Z,12.70
2022-09-05T04:12:47.311Z,12.69
2022-09-05T04:15:34.518Z,12.69
2022-09-05T04:18:11.706Z,12.69
2022-09-05T04:20:47.912Z,12.66
2022-09-05T04:23:29.478Z,12.65
2022-09-05T04:26:27.060Z,12.61
2022-09-05T04:29:04.211Z,12.59
2022-09-05T04:31:39.783Z,12.60
2022-09-05T04:34:43.079Z,12.58
2022-09-05T04:37:10.980Z,12.55
2022-09-05T04:39:37.704Z,12.54
2022-09-05T04:42:38.556Z,12.53
2022-09-05T04:45:17.510Z,12.53
2022-09-05T04:47:55.037Z,12.52
2022-09-05T04:50:24.962Z,12.51
2022-09-05T04:53:20.097Z,12.51
2022-09-05T04:55:51.416Z,12.50
2022-09-05T04:59:25.608Z,12.49
2022-09-05T05:06:01.607Z,12.46
2022-09-05T05:06:11.031Z,12.48
2022-09-05T05:07:33.133Z,12.46
2022-09-05T05:11:57.765Z,12.47
2022-09-05T05:18:03.864Z,12.46
2022-09-05T05:18:15.635Z,12.45
2022-09-05T05:19:05.134Z,12.48
2022-09-05T05:21:34.352Z,12.51
2022-09-05T05:24:12.997Z,12.52
2022-09-05T05:26:56.924Z,12.56
2022-09-05T05:29:36.699Z,12.60
2022-09-05T05:32:04.970Z,12.64
2022-09-05T05:34:41.636Z,12.68
2022-09-05T05:37:25.277Z,12.73
2022-09-05T05:40:05.229Z,12.78
2022-09-05T05:42:32.780Z,12.84
2022-09-05T05:44:59.874Z,12.91
2022-09-05T05:47:36.061Z,12.96
2022-09-05T05:50:23.928Z,13.02
2022-09-05T05:52:59.618Z,13.08
2022-09-05T05:56:05.382Z,13.15
2022-09-05T05:58:50.198Z,13.22
2022-09-05T06:01:37.379Z,13.26
2022-09-05T06:04:45.132Z,13.33
2022-09-05T06:08:39.954Z,13.39
2022-09-05T06:14:52.494Z,13.43
2022-09-05T06:15:02.642Z,13.49
2022-09-05T06:17:28.241Z,13.52
2022-09-05T06:22:06.614Z,13.60
2022-09-05T06:23:41.667Z,13.71
2022-09-05T06:26:49.410Z,13.85
2022-09-05T06:29:55.672Z,13.95
2022-09-05T06:32:56.893Z,14.05
2022-09-05T06:35:37.989Z,14.13
2022-09-05T06:38:13.501Z,14.21
2022-09-05T06:40:53.499Z,14.29
2022-09-05T06:43:32.244Z,14.41
2022-09-05T06:46:41.578Z,14.58
2022-09-05T06:49:30.644Z,14.73
2022-09-05T06:52:28.560Z,14.90
2022-09-05T06:55:17.785Z,15.05
2022-09-05T06:58:05.592Z,15.24
2022-09-05T07:00:34.054Z,15.40
2022-09-05T07:03:19.180Z,15.58
2022-09-05T07:05:58.766Z,15.84
2022-09-05T07:08:48.195Z,16.14
2022-09-05T07:11:25.651Z,16.42
2022-09-05T07:14:09.461Z,16.79
2022-09-05T07:16:55.111Z,17.15
2022-09-05T07:19:28.600Z,17.47
2022-09-05T07:22:47.925Z,17.89
2022-09-05T07:25:30.360Z,18.21
2022-09-05T07:28:29.806Z,18.57
2022-09-05T07:31:09.122Z,18.96
2022-09-05T07:33:39.403Z,19.23
2022-09-05T07:36:10.672Z,19.37
2022-09-05T07:38:54.859Z,19.57
2022-09-05T07:41:35.030Z,19.66
2022-09-05T07:44:22.279Z,19.80
2022-09-05T07:46:56.287Z,20.07
2022-09-05T07:49:28.690Z,20.39
2022-09-05T07:57:02.241Z,20.26
2022-09-05T07:57:10.686Z,20.20
2022-09-05T07:57:52.241Z,20.17
2022-09-05T08:00:27.105Z,20.19
2022-09-05T08:03:08.469Z,20.34
2022-09-05T08:05:43.831Z,20.66
2022-09-05T08:08:16.562Z,20.91
2022-09-05T08:11:22.137Z,21.17
2022-09-05T08:13:42.675Z,21.05
2022-09-05T08:16:17.533Z,21.22
2022-09-05T08:18:50.205Z,21.11
2022-09-05T08:21:48.833Z,20.97
2022-09-05T08:24:48.740Z,20.92
2022-09-05T08:27:24.390Z,21.02
2022-09-05T08:30:26.131Z,21.18
2022-09-05T08:33:10.453Z,21.23
2022-09-05T08:36:01.645Z,21.22
2022-09-05T08:38:40.638Z,21.29
2022-09-05T08:41:07.547Z,21.42
2022-09-05T08:46:35.641Z,21.43
2022-09-05T08:46:49.033Z,21.51
2022-09-05T08:49:39.431Z,21.43
2022-09-05T08:52:22.856Z,21.49
2022-09-05T08:55:11.183Z,21.45
2022-09-05T08:57:47.004Z,21.62
2022-09-05T09:00:24.569Z,21.68
2022-09-05T09:03:11.846Z,21.78
2022-09-05T09:06:12.499Z,21.90
2022-09-05T09:08:43.105Z,21.97
2022-09-05T09:11:22.041Z,22.08
2022-09-05T09:14:30.125Z,22.08
2022-09-05T09:17:16.077Z,22.13
2022-09-05T09:19:58.570Z,22.15
2022-09-05T09:22:34.936Z,22.21
2022-09-05T09:25:12.044Z,22.29
2022-09-05T09:28:48.673Z,22.33
2022-09-05T09:30:41.641Z,22.44
2022-09-05T09:33:15.263Z,22.60
2022-09-05T09:35:59.462Z,22.72
2022-09-05T09:39:11.923Z,22.78
2022-09-05T09:41:55.628Z,22.86
2022-09-05T09:44:46.734Z,23.03
2022-09-05T09:47:19.074Z,23.21
2022-09-05T09:50:20.833Z,23.36
2022-09-05T09:53:13.256Z,23.29
2022-09-05T09:56:10.862Z,23.50
2022-09-05T09:59:06.418Z,23.61
2022-09-05T10:04:29.477Z,23.56
2022-09-05T10:11:00.443Z,23.89
2022-09-05T10:11:09.108Z,23.69
2022-09-05T10:11:54.347Z,24.02
2022-09-05T10:14:49.408Z,24.15
2022-09-05T10:17:27.323Z,24.29
2022-09-05T10:20:13.310Z,24.35
2022-09-05T10:22:45.579Z,24.43
2022-09-05T10:25:47.148Z,24.38
2022-09-05T10:28:43.067Z,24.42
2022-09-05T10:33:24.249Z,24.62
2022-09-05T10:35:14.036Z,24.82
2022-09-05T10:37:18.921Z,24.84
2022-09-05T10:39:51.310Z,24.80
2022-09-05T10:42:30.190Z,24.80
2022-09-05T10:44:57.801Z,24.86
2022-09-05T10:47:42.752Z,25.00
2022-09-05T10:50:36.135Z,25.09
2022-09-05T10:53:15.339Z,25.19
2022-09-05T10:56:00.509Z,25.38
2022-09-05T10:59:17.905Z,25.52
2022-09-05T11:02:27.083Z,25.62
2022-09-05T11:04:46.636Z,25.64
2022-09-05T11:07:54.238Z,25.76
2022-09-05T11:10:51.205Z,25.93
2022-09-05T11:13:39.533Z,25.91
2022-09-05T11:16:20.478Z,26.13
2022-09-05T11:19:29.926Z,26.40
2022-09-05T11:22:13.823Z,26.77
2022-09-05T11:24:57.262Z,26.95
2022-09-05T11:27:36.938Z,26.60
2022-09-05T11:30:07.855Z,26.89
2022-09-05T11:38:35.500Z,27.22
2022-09-05T11:39:51.149Z,27.31
2022-09-05T11:40:04.704Z,27.58
2022-09-05T11:41:57.821Z,27.51
2022-09-05T11:44:27.376Z,27.68
2022-09-05T11:47:28.216Z,28.04
2022-09-05T11:49:49.289Z,28.14
2022-09-05T11:52:40.725Z,28.45
2022-09-05T11:55:36.790Z,28.74
2022-09-05T11:58:53.797Z,29.35
2022-09-05T12:01:44.163Z,28.82
2022-09-05T12:04:39.141Z,29.00
2022-09-05T12:07:31.657Z,29.32
2022-09-05T12:10:46.838Z,29.12
2022-09-05T12:13:48.055Z,29.64
2022-09-05T12:16:20.319Z,29.60
2022-09-05T12:19:18.674Z,29.68
2022-09-05T12:22:16.470Z,30.09
2022-09-05T12:25:18.731Z,30.40
2022-09-05T12:28:40.436Z,30.27
2022-09-05T12:32:58.075Z,30.78
2022-09-05T12:36:12.246Z,30.45
2022-09-05T12:39:52.163Z,30.64
2022-09-05T12:41:34.468Z,30.98
2022-09-05T12:44:36.697Z,30.83
2022-09-05T12:46:09.585Z,30.76
2022-09-05T12:49:07.200Z,30.83
2022-09-05T12:51:47.106Z,30.65
2022-09-05T12:54:34.664Z,30.72
2022-09-05T13:00:56.197Z,31.00
2022-09-05T13:03:01.345Z,31.06
2022-09-05T13:03:09.658Z,31.49
2022-09-05T13:06:05.366Z,31.32
2022-09-05T13:08:59.529Z,31.08
2022-09-05T13:14:47.710Z,31.54
2022-09-05T13:14:55.288Z,31.63
2022-09-05T13:17:16.672Z,31.89
2022-09-05T13:19:51.202Z,32.35
2022-09-05T13:22:24.064Z,32.80
2022-09-05T13:25:07.346Z,32.78
2022-09-05T13:27:40.803Z,32.24
2022-09-05T13:31:24.835Z,31.36
2022-09-05T13:38:19.331Z,31.73
2022-09-05T13:38:29.295Z,31.12
2022-09-05T13:39:11.635Z,30.75
2022-09-05T13:41:46.454Z,31.35
2022-09-05T13:44:27.347Z,32.18
2022-09-05T13:46:59.088Z,32.67
2022-09-05T13:49:29.391Z,32.08
2022-09-05T13:52:26.294Z,31.25
2022-09-05T13:55:10.672Z,31.24
2022-09-05T13:57:44.685Z,31.40
2022-09-05T14:00:27.553Z,31.35
2022-09-05T14:03:39.137Z,32.10
2022-09-05T14:06:45.180Z,32.52
2022-09-05T14:09:43.228Z,32.69
2022-09-05T14:12:32.146Z,32.73
2022-09-05T14:15:13.677Z,33.22
2022-09-05T14:18:58.080Z,33.28
2022-09-05T14:21:28.927Z,33.84
2022-09-05T14:24:12.512Z,33.41
2022-09-05T14:26:48.061Z,33.49
2022-09-05T14:29:20.523Z,33.26
2022-09-05T14:37:43.766Z,33.11
2022-09-05T14:37:46.472Z,32.97
2022-09-05T14:38:15.271Z,31.93
2022-09-05T14:41:20.510Z,31.86
2022-09-05T14:44:08.327Z,31.46
2022-09-05T14:47:34.972Z,31.55
2022-09-05T14:50:17.631Z,32.04
2022-09-05T14:57:23.814Z,31.61
2022-09-05T15:02:53.353Z,31.79
2022-09-05T15:03:00.862Z,32.21
2022-09-05T15:05:15.971Z,31.80
2022-09-05T15:07:51.137Z,31.14
2022-09-05T15:12:21.379Z,31.06
2022-09-05T15:13:24.809Z,30.58
2022-09-05T15:16:02.413Z,30.72
2022-09-05T15:18:39.837Z,30.41
2022-09-05T15:21:38.187Z,29.84
2022-09-05T15:24:14.185Z,30.18
2022-09-05T15:27:01.803Z,29.94
2022-09-05T15:29:34.450Z,30.02
2022-09-05T15:32:22.534Z,29.97
2022-09-05T15:34:54.768Z,29.47
2022-09-05T15:37:22.451Z,29.41
2022-09-05T15:40:07.690Z,29.50
2022-09-05T15:42:51.440Z,29.60
2022-09-05T15:45:25.117Z,29.37
2022-09-05T15:48:26.561Z,29.50
2022-09-05T15:51:11.333Z,29.36
2022-09-05T15:53:40.806Z,29.08
2022-09-05T15:56:10.088Z,29.02
2022-09-05T15:58:53.241Z,28.91
2022-09-05T16:01:59.948Z,28.67
2022-09-05T16:10:21.498Z,28.75
2022-09-05T16:10:43.466Z,28.41
2022-09-05T16:10:48.477Z,28.39
2022-09-05T16:12:58.928Z,28.30
2022-09-05T16:16:50.135Z,28.23
2022-09-05T16:23:24.939Z,28.33
2022-09-05T16:23:31.433Z,28.40
2022-09-05T16:24:05.782Z,28.36
2022-09-05T16:26:46.531Z,28.23
2022-09-05T16:29:26.762Z,27.83
2022-09-05T16:31:59.727Z,27.80
2022-09-05T16:35:10.658Z,27.58
2022-09-05T16:37:39.534Z,27.66
2022-09-05T16:40:14.353Z,27.51
2022-09-05T16:42:51.351Z,27.29
2022-09-05T16:45:25.135Z,27.19
2022-09-05T16:48:02.456Z,27.10
2022-09-05T16:50:35.788Z,26.93
2022-09-05T16:53:30.444Z,26.90
2022-09-05T16:56:03.216Z,26.83
2022-09-05T16:58:49.021Z,26.72
2022-09-05T17:01:40.557Z,26.63
2022-09-05T17:04:20.657Z,26.49
2022-09-05T17:07:17.800Z,26.44
2022-09-05T17:09:45.985Z,26.35
2022-09-05T17:12:26.503Z,26.28
2022-09-05T17:20:20.179Z,26.18
2022-09-05T17:29:16.124Z,26.08
2022-09-05T17:29:27.390Z,26.03
2022-09-05T17:29:46.907Z,25.93
2022-09-05T17:31:55.915Z,25.87
2022-09-05T17:34:37.684Z,25.80
2022-09-05T17:37:14.793Z,25.78
2022-09-05T17:39:55.170Z,25.70
2022-09-05T17:42:32.712Z,25.69
2022-09-05T17:45:25.331Z,25.59
2022-09-05T17:47:55.650Z,25.58
2022-09-05T17:50:25.294Z,25.54
2022-09-05T17:52:56.266Z,25.48
2022-09-05T17:55:49.136Z,25.34
2022-09-05T17:58:49.591Z,25.32
2022-09-05T18:01:26.776Z,25.21
2022-09-05T18:03:54.358Z,25.19
2022-09-05T18:06:33.184Z,25.11
2022-09-05T18:09:08.801Z,25.10
2022-09-05T18:11:44.622Z,25.04
2022-09-05T18:14:24.648Z,24.98
2022-09-05T18:17:37.280Z,24.91
2022-09-05T18:19:43.893Z,24.79
2022-09-05T18:22:25.410Z,24.73
2022-09-05T18:25:13.930Z,24.64
2022-09-05T18:28:04.767Z,24.41
2022-09-05T18:30:37.111Z,24.38
2022-09-05T18:33:55.488Z,24.35
2022-09-05T18:35:56.064Z,24.04
2022-09-05T18:38:50.400Z,23.75
2022-09-05T18:41:21.771Z,23.53
2022-09-05T18:44:13.928Z,23.37
2022-09-05T18:46:51.727Z,23.36
2022-09-05T18:50:25.833Z,23.05
2022-09-05T18:52:30.694Z,22.82
2022-09-05T18:56:11.569Z,22.65
2022-09-05T18:58:22.165Z,22.47
2022-09-05T19:00:55.333Z,22.51
2022-09-05T19:03:31.554Z,22.24
2022-09-05T19:06:35.733Z,21.99
2022-09-05T19:08:56.558Z,21.97
2022-09-05T19:11:34.186Z,21.86
2022-09-05T19:14:26.678Z,21.91
2022-09-05T19:17:08.267Z,21.72
2022-09-05T19:20:05.158Z,21.57
2022-09-05T19:23:10.803Z,21.54
2022-09-05T19:25:38.289Z,21.53
2022-09-05T19:36:46.779Z,21.40
2022-09-05T19:37:03.294Z,21.39
2022-09-05T19:37:09.436Z,21.36
2022-09-05T19:37:37.437Z,21.19
2022-09-05T19:43:28.361Z,21.17
2022-09-05T19:47:40.605Z,21.19
2022-09-05T19:47:43.034Z,21.23
2022-09-05T19:48:19.778Z,21.15
2022-09-05T19:50:47.348Z,21.22
2022-09-05T19:53:18.101Z,21.21
2022-09-05T19:55:45.787Z,21.06
2022-09-05T19:58:28.998Z,21.10
2022-09-05T20:01:06.263Z,21.00
2022-09-05T20:03:38.301Z,20.97
2022-09-05T20:06:30.290Z,20.94
2022-09-05T20:09:09.521Z,20.93
2022-09-05T20:11:45.650Z,20.96
2022-09-05T20:14:31.015Z,20.93
2022-09-05T20:17:18.039Z,20.83
2022-09-05T20:19:45.342Z,20.86
2022-09-05T20:22:46.773Z,20.80
2022-09-05T20:25:08.590Z,20.63
2022-09-05T20:27:37.360Z,20.66
2022-09-05T20:30:15.011Z,20.67
2022-09-05T20:32:46.320Z,20.60
2022-09-05T20:38:04.766Z,20.62
2022-09-05T20:43:25.327Z,20.52
2022-09-05T20:43:29.306Z,20.50
2022-09-05T20:44:22.572Z,20.53
2022-09-05T20:50:44.389Z,20.49
2022-09-05T20:54:06.090Z,20.46
2022-09-05T20:54:16.968Z,20.36
2022-09-05T20:55:38.508Z,20.30
2022-09-05T20:58:15.235Z,20.23
2022-09-05T21:01:20.057Z,20.09
2022-09-05T21:03:45.460Z,20.07
2022-09-05T21:06:23.610Z,20.04
2022-09-05T21:08:52.325Z,20.01
2022-09-05T21:11:29.558Z,19.87
2022-09-05T21:13:59.367Z,19.88
2022-09-05T21:16:31.844Z,19.85
2022-09-05T21:18:58.514Z,19.81
2022-09-05T21:21:28.326Z,19.79
2022-09-05T21:24:17.534Z,19.76
2022-09-05T21:26:44.791Z,19.61
2022-09-05T21:29:11.274Z,19.63
2022-09-05T21:31:43.879Z,19.61
2022-09-05T21:34:25.911Z,19.57
2022-09-05T21:36:59.201Z,19.61
2022-09-05T21:39:41.691Z,19.60
2022-09-05T21:42:25.508Z,19.58
2022-09-05T21:47:45.068Z,19.53
2022-09-05T21:48:00.804Z,19.50
2022-09-05T21:50:32.050Z,19.49
2022-09-05T21:54:35.185Z,19.48
2022-09-05T21:59:21.453Z,19.46
2022-09-05T21:59:32.701Z,19.43
2022-09-05T22:01:37.465Z,19.44
2022-09-05T22:04:10.165Z,19.34
2022-09-05T22:06:36.878Z,19.41
2022-09-05T22:09:13.016Z,19.39
2022-09-05T22:11:40.735Z,19.34
2022-09-05T22:14:08.978Z,19.34
2022-09-05T22:16:39.990Z,19.33
2022-09-05T22:19:12.713Z,19.34
2022-09-05T22:21:40.149Z,19.31
2022-09-05T22:24:09.612Z,19.30
2022-09-05T22:27:11.602Z,19.25
2022-09-05T22:29:34.543Z,19.24
2022-09-05T22:32:01.220Z,19.25
2022-09-05T22:34:30.864Z,19.20
2022-09-05T22:36:57.599Z,19.23
2022-09-05T22:39:37.317Z,19.22
2022-09-05T22:42:10.338Z,19.22
2022-09-05T22:44:39.390Z,19.19
2022-09-05T22:47:07.816Z,19.22
2022-09-05T22:49:36.434Z,19.18
2022-09-05T22:52:07.163Z,19.15
2022-09-05T22:54:35.223Z,19.16
2022-09-05T22:57:02.213Z,19.18
2022-09-05T22:59:28.720Z,19.09
2022-09-05T23:01:55.301Z,19.15
2022-09-05T23:04:21.984Z,19.15
2022-09-05T23:06:48.622Z,19.07
2022-09-05T23:09:15.127Z,19.03
2022-09-05T23:11:41.761Z,19.04
2022-09-05T23:14:08.255Z,19.05
2022-09-05T23:16:34.802Z,19.03
2022-09-05T23:19:01.535Z,19.00
2022-09-05T23:21:28.224Z,18.98
2022-09-05T23:23:54.762Z,18.96
2022-09-05T23:26:22.123Z,18.89
2022-09-05T23:28:48.666Z,18.88
2022-09-05T23:31:15.264Z,18.75
2022-09-05T23:33:42.245Z,18.75
2022-09-05T23:36:13.743Z,18.74
2022-09-05T23:38:43.915Z,18.72
2022-09-05T23:41:13.661Z,18.72
2022-09-05T23:43:40.483Z,18.64
2022-09-05T23:46:07.879Z,18.64
2022-09-05T23:48:35.133Z,18.63
2022-09-05T23:51:07.226Z,18.56
2022-09-05T23:53:34.255Z,18.54
2022-09-05T23:56:05.142Z,18.50
2022-09-05T23:58:32.462Z,18.49
